createdAt,value
2019-01-31T00:01:41.950Z,29.05
2019-01-31T00:04:43.605Z,30.77
2019-01-31T00:07:42.674Z,28.83
2019-01-31T00:10:53.319Z,28.42
2019-01-31T00:13:50.978Z,32.00
2019-01-31T00:16:46.436Z,30.30
2019-01-31T00:19:45.602Z,30.57
2019-01-31T00:23:05.786Z,32.17
2019-01-31T00:26:34.381Z,31.00
2019-01-31T00:29:38.584Z,31.97
2019-01-31T00:32:47.682Z,29.63
2019-01-31T00:35:35.620Z,31.57
2019-01-31T00:38:37.173Z,28.13
2019-01-31T00:42:05.907Z,31.07
2019-01-31T00:45:01.938Z,31.97
2019-01-31T00:48:09.274Z,32.83
2019-01-31T00:50:53.508Z,33.28
2019-01-31T00:53:41.468Z,31.30
2019-01-31T00:56:54.752Z,29.23
2019-01-31T01:00:00.425Z,33.47
2019-01-31T01:03:12.459Z,32.38
2019-01-31T01:06:11.896Z,29.87
2019-01-31T01:09:07.764Z,28.70
2019-01-31T01:11:52.985Z,29.53
2019-01-31T01:15:09.168Z,36.57
2019-01-31T01:17:49.702Z,33.38
2019-01-31T01:21:06.158Z,30.73
2019-01-31T01:24:04.109Z,29.27
2019-01-31T01:27:11.035Z,29.13
2019-01-31T01:30:01.291Z,29.75
2019-01-31T01:33:11.033Z,29.10
2019-01-31T01:36:06.309Z,33.33
2019-01-31T01:39:19.750Z,29.32
2019-01-31T01:42:26.490Z,32.67
2019-01-31T01:45:25.789Z,33.28
2019-01-31T01:48:32.310Z,28.70
2019-01-31T01:51:26.558Z,29.03
2019-01-31T01:54:26.014Z,30.65
2019-01-31T01:57:32.245Z,32.93
2019-01-31T02:00:21.392Z,32.60
2019-01-31T02:03:53.280Z,31.70
2019-01-31T02:06:39.656Z,31.83
2019-01-31T02:09:33.556Z,29.90
2019-01-31T02:12:59.201Z,32.15
2019-01-31T02:16:03.614Z,32.07
2019-01-31T02:18:42.650Z,30.08
2019-01-31T02:21:40.569Z,29.77
2019-01-31T02:24:25.491Z,28.97
2019-01-31T02:27:12.962Z,31.48
2019-01-31T02:29:58.618Z,28.80
2019-01-31T02:33:18.328Z,31.42
2019-01-31T02:36:44.151Z,29.80
2019-01-31T02:39:44.571Z,29.70
2019-01-31T02:42:57.050Z,34.38
2019-01-31T02:46:06.033Z,32.10
2019-01-31T02:48:58.393Z,30.62
2019-01-31T02:52:20.709Z,31.03
2019-01-31T02:55:10.522Z,30.40
2019-01-31T02:58:04.909Z,30.20
2019-01-31T03:00:55.423Z,30.40
2019-01-31T03:03:50.940Z,28.97
2019-01-31T03:07:01.778Z,30.07
2019-01-31T03:09:55.919Z,25.50
2019-01-31T03:12:46.232Z,26.23
2019-01-31T03:15:42.486Z,28.17
2019-01-31T03:18:28.787Z,25.17
2019-01-31T03:21:31.856Z,25.17
2019-01-31T03:24:34.374Z,26.30
2019-01-31T03:27:29.789Z,25.30
2019-01-31T03:30:55.472Z,25.53
2019-01-31T03:33:53.546Z,24.97
2019-01-31T03:37:15.733Z,24.67
2019-01-31T03:40:24.454Z,24.30
2019-01-31T03:43:27.018Z,22.37
2019-01-31T03:46:27.906Z,21.60
2019-01-31T03:49:41.302Z,21.53
2019-01-31T03:52:50.489Z,21.13
2019-01-31T03:55:40.586Z,20.03
2019-01-31T03:58:39.387Z,21.70
2019-01-31T04:01:49.134Z,21.53
2019-01-31T04:04:26.389Z,20.00
2019-01-31T04:06:56.937Z,20.63
2019-01-31T04:09:29.992Z,19.93
2019-01-31T04:12:00.374Z,19.75
2019-01-31T04:14:30.499Z,20.08
2019-01-31T04:17:00.643Z,22.07
2019-01-31T04:19:31.347Z,21.70
2019-01-31T04:22:00.744Z,21.30
2019-01-31T04:24:30.886Z,21.73
2019-01-31T04:27:01.603Z,23.27
2019-01-31T04:29:31.029Z,23.97
2019-01-31T04:32:01.036Z,24.00
2019-01-31T04:34:30.413Z,23.17
2019-01-31T04:37:00.791Z,23.62
2019-01-31T04:39:30.665Z,25.25
2019-01-31T04:42:00.499Z,24.57
2019-01-31T04:44:30.317Z,25.50
2019-01-31T04:47:00.581Z,25.07
2019-01-31T04:49:30.393Z,27.47
2019-01-31T04:52:02.227Z,24.77
2019-01-31T04:54:33.024Z,25.17
2019-01-31T04:57:04.044Z,27.53
2019-01-31T04:59:33.424Z,25.90
2019-01-31T05:02:03.928Z,26.50
2019-01-31T05:04:34.810Z,25.77
2019-01-31T05:07:04.295Z,27.10
2019-01-31T05:09:34.001Z,28.37
2019-01-31T05:12:03.411Z,27.80
2019-01-31T05:14:32.804Z,28.27
2019-01-31T05:17:02.444Z,28.83
2019-01-31T05:19:31.818Z,26.93
2019-01-31T05:22:02.323Z,30.10
2019-01-31T05:24:33.412Z,32.93
2019-01-31T05:27:04.496Z,28.60
2019-01-31T05:29:35.080Z,32.00
2019-01-31T05:32:05.774Z,28.73
2019-01-31T05:34:35.198Z,32.17
2019-01-31T05:37:04.740Z,31.20
2019-01-31T05:39:36.018Z,31.13
2019-01-31T05:42:08.377Z,32.05
2019-01-31T05:44:37.783Z,31.30
2019-01-31T05:47:07.278Z,31.85
2019-01-31T05:49:36.700Z,31.27
2019-01-31T05:52:06.237Z,30.15
2019-01-31T05:54:35.667Z,32.53
2019-01-31T05:57:05.036Z,30.07
2019-01-31T05:59:34.413Z,28.83
2019-01-31T06:02:03.991Z,29.87
2019-01-31T06:04:33.346Z,31.57
2019-01-31T06:07:10.938Z,30.23
2019-01-31T06:09:35.730Z,30.90
2019-01-31T06:12:06.261Z,33.50
2019-01-31T06:14:37.171Z,31.73
2019-01-31T06:17:08.503Z,32.07
2019-01-31T06:19:39.792Z,35.33
2019-01-31T06:22:11.057Z,33.30
2019-01-31T06:24:40.668Z,35.55
2019-01-31T06:27:11.934Z,34.73
2019-01-31T06:29:41.701Z,32.90
2019-01-31T06:32:11.225Z,34.37
2019-01-31T06:34:40.754Z,36.15
2019-01-31T06:37:10.188Z,31.00
2019-01-31T06:39:41.442Z,32.37
2019-01-31T06:42:13.817Z,35.03
2019-01-31T06:44:43.231Z,35.30
2019-01-31T06:47:12.656Z,33.67
2019-01-31T06:49:42.055Z,32.23
2019-01-31T06:52:11.443Z,31.50
2019-01-31T06:54:40.986Z,32.77
2019-01-31T06:57:13.383Z,34.43
2019-01-31T06:59:42.898Z,32.85
2019-01-31T07:02:13.429Z,33.47
2019-01-31T07:04:42.822Z,36.00
2019-01-31T07:07:13.321Z,32.70
2019-01-31T07:09:42.783Z,34.23
2019-01-31T07:12:12.194Z,33.95
2019-01-31T07:14:41.690Z,34.50
2019-01-31T07:17:13.747Z,33.48
2019-01-31T07:19:44.974Z,30.30
2019-01-31T07:22:17.683Z,31.63
2019-01-31T07:24:47.248Z,32.93
2019-01-31T07:27:16.740Z,34.63
2019-01-31T07:29:46.259Z,34.55
2019-01-31T07:32:15.858Z,34.15
2019-01-31T07:34:47.113Z,36.27
2019-01-31T07:37:20.210Z,33.05
2019-01-31T07:39:49.768Z,31.85
2019-01-31T07:42:19.164Z,33.50
2019-01-31T07:44:48.573Z,35.10
2019-01-31T07:47:18.292Z,33.55
2019-01-31T07:49:49.141Z,32.57
2019-01-31T07:52:19.086Z,33.45
2019-01-31T07:54:48.560Z,31.70
2019-01-31T07:57:18.965Z,32.10
2019-01-31T07:59:48.394Z,30.70
2019-01-31T08:02:18.013Z,32.48
2019-01-31T08:04:47.546Z,30.40
2019-01-31T08:07:18.441Z,31.97
2019-01-31T08:09:47.968Z,30.83
2019-01-31T08:12:17.404Z,31.97
2019-01-31T08:14:46.816Z,31.67
2019-01-31T08:17:16.320Z,30.75
2019-01-31T08:19:45.759Z,31.03
2019-01-31T08:22:15.152Z,31.27
2019-01-31T08:24:47.881Z,32.10
2019-01-31T08:27:17.308Z,30.23
2019-01-31T08:29:47.845Z,30.72
2019-01-31T08:32:17.320Z,29.80
2019-01-31T08:34:46.895Z,29.70
2019-01-31T08:37:17.692Z,30.80
2019-01-31T08:39:47.403Z,30.62
2019-01-31T08:42:16.824Z,31.10
2019-01-31T08:44:46.231Z,30.37
2019-01-31T08:47:15.822Z,30.75
2019-01-31T08:49:45.228Z,29.05
2019-01-31T08:52:14.627Z,27.62
2019-01-31T08:54:44.099Z,29.65
2019-01-31T08:57:14.930Z,29.03
2019-01-31T08:59:44.370Z,28.90
2019-01-31T09:02:13.829Z,30.48
2019-01-31T09:04:43.246Z,28.35
2019-01-31T09:07:14.493Z,30.73
2019-01-31T09:09:45.085Z,33.03
2019-01-31T09:12:15.585Z,27.03
2019-01-31T09:14:45.365Z,30.40
2019-01-31T09:17:15.856Z,25.80
2019-01-31T09:19:45.286Z,30.50
2019-01-31T09:22:30.038Z,29.20
2019-01-31T09:25:45.382Z,28.23
2019-01-31T09:29:02.032Z,30.83
2019-01-31T09:32:34.815Z,29.73
2019-01-31T09:35:37.704Z,26.87
2019-01-31T09:38:47.269Z,28.23
2019-01-31T09:41:53.058Z,29.40
2019-01-31T09:45:06.769Z,25.87
2019-01-31T09:48:00.600Z,26.17
2019-01-31T09:51:07.485Z,28.17
2019-01-31T09:54:17.930Z,26.97
2019-01-31T09:57:46.517Z,30.00
2019-01-31T10:00:29.397Z,24.80
2019-01-31T10:03:38.785Z,24.73
2019-01-31T10:06:31.255Z,27.33
2019-01-31T10:09:57.101Z,24.37
2019-01-31T10:13:13.570Z,25.00
2019-01-31T10:16:15.236Z,26.95
2019-01-31T10:19:16.039Z,23.37
2019-01-31T10:22:08.085Z,24.53
2019-01-31T10:25:02.242Z,25.33
2019-01-31T10:27:56.849Z,24.20
2019-01-31T10:30:57.581Z,26.37
2019-01-31T10:33:58.833Z,27.57
2019-01-31T10:36:51.580Z,30.20
2019-01-31T10:39:38.715Z,25.87
2019-01-31T10:42:50.537Z,25.15
2019-01-31T10:45:59.541Z,23.73
2019-01-31T10:49:05.790Z,25.80
2019-01-31T10:52:11.862Z,25.27
2019-01-31T10:55:22.088Z,24.73
2019-01-31T10:58:35.216Z,24.97
2019-01-31T11:02:07.435Z,26.77
2019-01-31T11:05:35.840Z,26.00
2019-01-31T11:08:55.377Z,26.27
2019-01-31T11:12:11.923Z,23.30
2019-01-31T11:14:58.894Z,27.90
2019-01-31T11:18:04.820Z,24.87
2019-01-31T11:21:12.537Z,26.43
2019-01-31T11:24:08.872Z,23.50
2019-01-31T11:27:14.184Z,22.02
2019-01-31T11:30:21.643Z,26.02
2019-01-31T11:33:31.669Z,18.77
2019-01-31T11:36:47.152Z,19.50
2019-01-31T11:39:47.640Z,16.70
2019-01-31T11:43:11.320Z,16.65
2019-01-31T11:46:10.387Z,15.27
2019-01-31T11:49:23.991Z,16.17
2019-01-31T11:52:22.580Z,14.87
2019-01-31T11:55:32.790Z,16.23
2019-01-31T11:58:20.523Z,19.13
2019-01-31T12:00:52.902Z,20.50
2019-01-31T12:03:21.501Z,20.93
2019-01-31T12:05:51.119Z,22.97
2019-01-31T12:08:20.593Z,21.67
2019-01-31T12:10:51.521Z,20.73
2019-01-31T12:13:23.947Z,19.87
2019-01-31T12:15:55.853Z,19.93
2019-01-31T12:18:25.536Z,19.13
2019-01-31T12:20:55.173Z,19.40
2019-01-31T12:23:24.605Z,19.67
2019-01-31T12:25:55.191Z,21.90
2019-01-31T12:28:26.424Z,18.43
2019-01-31T12:30:56.952Z,18.10
2019-01-31T12:33:26.556Z,17.90
2019-01-31T12:35:57.331Z,17.10
2019-01-31T12:38:36.468Z,15.43
2019-01-31T12:40:58.123Z,13.93
2019-01-31T12:43:34.826Z,19.02
2019-01-31T12:45:58.954Z,16.40
2019-01-31T12:48:28.775Z,17.73
2019-01-31T12:50:58.238Z,14.80
2019-01-31T12:53:30.371Z,20.33
2019-01-31T12:55:59.843Z,27.53
2019-01-31T12:58:33.740Z,17.93
2019-01-31T13:01:01.810Z,17.20
2019-01-31T13:03:31.730Z,15.48
2019-01-31T13:06:03.357Z,16.90
2019-01-31T13:08:32.868Z,15.80
2019-01-31T13:11:02.323Z,15.33
2019-01-31T13:13:32.043Z,16.10
2019-01-31T13:16:01.972Z,13.40
2019-01-31T13:18:31.779Z,14.43
2019-01-31T13:21:01.979Z,17.50
2019-01-31T13:23:33.200Z,17.12
2019-01-31T13:26:03.722Z,15.53
2019-01-31T13:28:35.452Z,18.03
2019-01-31T13:31:05.087Z,16.43
2019-01-31T13:33:34.818Z,13.53
2019-01-31T13:36:05.914Z,15.27
2019-01-31T13:38:36.529Z,13.70
2019-01-31T13:41:05.993Z,12.43
2019-01-31T13:43:35.712Z,13.40
2019-01-31T13:46:05.899Z,12.93
2019-01-31T13:48:35.323Z,11.33
2019-01-31T13:51:07.909Z,10.63
2019-01-31T13:53:39.263Z,11.90
2019-01-31T13:56:11.407Z,12.10
2019-01-31T13:58:41.014Z,12.82
2019-01-31T14:01:10.615Z,12.98
2019-01-31T14:03:43.719Z,12.80
2019-01-31T14:06:14.317Z,11.90
2019-01-31T14:08:44.923Z,12.50
2019-01-31T14:11:14.327Z,9.93
2019-01-31T14:13:45.385Z,11.20
2019-01-31T14:16:17.766Z,9.85
2019-01-31T14:18:47.554Z,11.20
2019-01-31T14:21:17.244Z,11.03
2019-01-31T14:23:47.745Z,11.90
2019-01-31T14:26:18.465Z,11.60
2019-01-31T14:28:48.971Z,10.77
2019-01-31T14:31:18.397Z,9.00
2019-01-31T14:33:50.928Z,9.38
2019-01-31T14:36:21.128Z,10.73
2019-01-31T14:38:50.529Z,9.37
2019-01-31T14:41:23.012Z,12.10
2019-01-31T14:43:52.628Z,12.20
2019-01-31T14:46:22.349Z,11.37
2019-01-31T14:48:51.640Z,11.73
2019-01-31T14:51:22.567Z,12.87
2019-01-31T14:53:54.973Z,14.00
2019-01-31T14:56:24.476Z,10.93
2019-01-31T14:58:54.188Z,14.37
2019-01-31T15:01:23.694Z,10.30
2019-01-31T15:03:55.329Z,13.43
2019-01-31T15:06:26.348Z,12.07
2019-01-31T15:08:55.772Z,10.63
2019-01-31T15:11:25.356Z,11.67
2019-01-31T15:13:55.123Z,10.63
2019-01-31T15:16:24.571Z,13.23
2019-01-31T15:18:54.042Z,16.80
2019-01-31T15:21:23.657Z,8.47
2019-01-31T15:23:53.163Z,11.77
2019-01-31T15:26:22.773Z,11.63
2019-01-31T15:28:52.491Z,10.00
2019-01-31T15:31:23.399Z,11.13
2019-01-31T15:33:52.865Z,11.67
2019-01-31T15:36:24.393Z,14.40
2019-01-31T15:38:53.828Z,9.53
2019-01-31T15:41:23.218Z,10.77
2019-01-31T15:43:52.909Z,10.13
2019-01-31T15:46:22.404Z,8.50
2019-01-31T15:48:52.122Z,12.03
2019-01-31T15:51:21.704Z,11.07
2019-01-31T15:53:51.112Z,11.10
2019-01-31T15:56:20.604Z,12.00
2019-01-31T15:58:50.242Z,11.03
2019-01-31T16:01:20.205Z,9.63
2019-01-31T16:03:51.267Z,11.78
2019-01-31T16:06:22.324Z,11.22
2019-01-31T16:08:51.723Z,14.23
2019-01-31T16:11:21.196Z,13.10
2019-01-31T16:13:50.634Z,11.23
2019-01-31T16:16:22.562Z,11.97
2019-01-31T16:18:53.793Z,12.90
2019-01-31T16:21:27.221Z,10.23
2019-01-31T16:23:57.847Z,11.53
2019-01-31T16:26:27.353Z,11.83
2019-01-31T16:28:56.809Z,10.70
2019-01-31T16:31:26.244Z,10.27
2019-01-31T16:33:56.963Z,17.83
2019-01-31T16:36:26.622Z,11.47
2019-01-31T16:38:57.874Z,11.37
2019-01-31T16:41:28.758Z,12.20
2019-01-31T16:43:59.878Z,12.70
2019-01-31T16:46:29.401Z,13.00
2019-01-31T16:48:59.852Z,13.50
2019-01-31T16:51:32.307Z,12.67
2019-01-31T16:54:01.728Z,12.58
2019-01-31T16:56:33.058Z,15.47
2019-01-31T16:59:03.073Z,15.27
2019-01-31T17:01:34.776Z,13.05
2019-01-31T17:04:04.516Z,12.77
2019-01-31T17:06:35.581Z,12.13
2019-01-31T17:09:08.160Z,11.40
2019-01-31T17:11:39.447Z,11.03
2019-01-31T17:14:09.206Z,11.50
2019-01-31T17:16:39.768Z,11.97
2019-01-31T17:19:10.479Z,14.65
2019-01-31T17:21:40.097Z,14.18
2019-01-31T17:24:09.564Z,12.13
2019-01-31T17:26:39.398Z,13.37
2019-01-31T17:29:10.148Z,13.83
2019-01-31T17:31:39.643Z,10.93
2019-01-31T17:34:09.043Z,12.17
2019-01-31T17:36:38.519Z,13.17
2019-01-31T17:39:10.274Z,16.63
2019-01-31T17:41:39.812Z,11.20
2019-01-31T17:44:09.496Z,12.27
2019-01-31T17:46:38.948Z,10.73
2019-01-31T17:49:10.366Z,11.00
2019-01-31T17:51:40.140Z,12.33
2019-01-31T17:54:11.435Z,11.73
2019-01-31T17:56:40.818Z,14.10
2019-01-31T17:59:10.300Z,10.70
2019-01-31T18:01:39.767Z,10.90
2019-01-31T18:04:12.388Z,11.73
2019-01-31T18:06:42.259Z,12.55
2019-01-31T18:09:13.678Z,12.93
2019-01-31T18:11:43.115Z,12.65
2019-01-31T18:14:12.899Z,12.33
2019-01-31T18:16:42.331Z,13.90
2019-01-31T18:19:13.559Z,12.77
2019-01-31T18:21:44.275Z,15.57
2019-01-31T18:24:15.003Z,14.33
2019-01-31T18:26:44.431Z,13.47
2019-01-31T18:29:14.093Z,14.10
2019-01-31T18:31:43.629Z,12.80
2019-01-31T18:34:13.085Z,16.27
2019-01-31T18:36:45.764Z,12.82
2019-01-31T18:39:16.236Z,12.70
2019-01-31T18:41:45.662Z,12.40
2019-01-31T18:44:15.159Z,12.43
2019-01-31T18:46:46.412Z,12.47
2019-01-31T18:49:18.714Z,16.20
2019-01-31T18:51:48.259Z,15.43
2019-01-31T18:54:20.438Z,14.38
2019-01-31T18:56:51.532Z,14.55
2019-01-31T18:59:21.230Z,13.68
2019-01-31T19:01:50.644Z,13.77
2019-01-31T19:04:20.076Z,11.80
2019-01-31T19:06:49.753Z,15.03
2019-01-31T19:09:19.586Z,14.93
2019-01-31T19:11:48.989Z,12.60
2019-01-31T19:14:18.553Z,14.20
2019-01-31T19:16:48.004Z,12.90
2019-01-31T19:19:17.448Z,12.98
2019-01-31T19:21:49.921Z,14.20
2019-01-31T19:24:19.424Z,12.30
2019-01-31T19:26:50.078Z,12.97
2019-01-31T19:29:21.164Z,11.73
2019-01-31T19:31:50.663Z,12.13
2019-01-31T19:34:20.132Z,11.63
2019-01-31T19:36:53.539Z,14.95
2019-01-31T19:39:23.030Z,12.70
2019-01-31T19:41:52.568Z,14.63
2019-01-31T19:44:23.490Z,12.15
2019-01-31T19:46:54.787Z,13.45
2019-01-31T19:49:24.229Z,15.40
2019-01-31T19:51:53.794Z,11.70
2019-01-31T19:54:23.223Z,14.87
2019-01-31T19:56:54.170Z,13.77
2019-01-31T19:59:23.604Z,15.43
2019-01-31T20:01:53.196Z,14.13
2019-01-31T20:04:22.581Z,14.10
2019-01-31T20:06:54.976Z,12.93
2019-01-31T20:09:28.308Z,16.70
2019-01-31T20:11:57.699Z,19.97
2019-01-31T20:14:27.933Z,26.00
2019-01-31T20:16:59.002Z,20.13
2019-01-31T20:19:28.402Z,15.17
2019-01-31T20:21:59.636Z,14.17
2019-01-31T20:24:30.216Z,13.62
2019-01-31T20:26:59.598Z,14.40
2019-01-31T20:29:30.457Z,17.23
2019-01-31T20:32:00.009Z,14.77
2019-01-31T20:34:30.610Z,16.10
2019-01-31T20:37:00.337Z,13.83
2019-01-31T20:39:32.853Z,13.73
2019-01-31T20:42:03.362Z,14.00
2019-01-31T20:44:33.025Z,14.80
2019-01-31T20:47:02.473Z,14.20
2019-01-31T20:49:31.932Z,16.87
2019-01-31T20:52:01.556Z,14.97
2019-01-31T20:54:33.420Z,15.60
2019-01-31T20:57:02.833Z,13.97
2019-01-31T20:59:32.574Z,16.50
2019-01-31T21:02:03.854Z,17.90
2019-01-31T21:04:37.244Z,16.37
2019-01-31T21:07:06.190Z,18.17
2019-01-31T21:09:35.604Z,17.57
2019-01-31T21:12:06.121Z,18.43
2019-01-31T21:14:38.547Z,17.97
2019-01-31T21:17:08.623Z,19.03
2019-01-31T21:19:39.263Z,16.50
2019-01-31T21:22:09.109Z,16.80
2019-01-31T21:24:38.564Z,18.77
2019-01-31T21:27:09.317Z,17.83
2019-01-31T21:29:38.921Z,15.87
2019-01-31T21:32:08.404Z,17.95
2019-01-31T21:34:38.208Z,18.20
2019-01-31T21:37:08.246Z,19.13
2019-01-31T21:39:39.181Z,20.20
2019-01-31T21:42:09.585Z,20.43
2019-01-31T21:44:39.359Z,19.17
2019-01-31T21:47:08.952Z,19.10
2019-01-31T21:49:43.120Z,18.47
2019-01-31T21:52:14.135Z,18.90
2019-01-31T21:54:43.624Z,19.53
2019-01-31T21:57:13.088Z,18.65
2019-01-31T21:59:43.678Z,20.60
2019-01-31T22:02:14.146Z,20.67
2019-01-31T22:04:44.688Z,21.27
2019-01-31T22:07:14.158Z,18.83
2019-01-31T22:09:43.654Z,21.77
2019-01-31T22:12:13.192Z,21.57
2019-01-31T22:14:42.706Z,18.87
2019-01-31T22:17:14.791Z,20.12
2019-01-31T22:19:45.059Z,21.30
2019-01-31T22:22:16.626Z,19.73
2019-01-31T22:24:47.488Z,22.07
2019-01-31T22:27:17.074Z,22.95
2019-01-31T22:29:47.807Z,22.33
2019-01-31T22:32:17.312Z,22.80
2019-01-31T22:34:46.801Z,20.10
2019-01-31T22:37:16.478Z,21.07
2019-01-31T22:39:46.077Z,22.03
2019-01-31T22:42:17.052Z,22.37
2019-01-31T22:44:47.504Z,20.50
2019-01-31T22:47:25.668Z,20.97
2019-01-31T22:49:48.355Z,46.88
2019-01-31T22:52:18.006Z,23.53
2019-01-31T22:54:47.407Z,24.72
2019-01-31T22:57:17.030Z,22.10
2019-01-31T22:59:48.470Z,24.60
2019-01-31T23:02:17.986Z,22.70
2019-01-31T23:04:48.842Z,20.32
2019-01-31T23:07:18.341Z,21.57
2019-01-31T23:09:47.783Z,20.60
2019-01-31T23:12:17.235Z,22.42
2019-01-31T23:14:46.715Z,22.77
2019-01-31T23:17:16.158Z,20.70
2019-01-31T23:19:46.996Z,21.73
2019-01-31T23:22:16.435Z,21.55
2019-01-31T23:24:46.086Z,21.17
2019-01-31T23:27:17.160Z,21.50
2019-01-31T23:29:46.566Z,22.85
2019-01-31T23:32:16.069Z,24.60
2019-01-31T23:34:45.536Z,22.60
2019-01-31T23:37:16.113Z,22.30
2019-01-31T23:39:45.565Z,27.95
2019-01-31T23:42:15.342Z,22.93
2019-01-31T23:44:44.773Z,24.50
2019-01-31T23:47:15.752Z,23.47
2019-01-31T23:49:45.397Z,25.02
2019-01-31T23:52:15.892Z,25.27
2019-01-31T23:54:47.130Z,26.23
2019-01-31T23:57:18.276Z,24.47
2019-01-31T23:59:47.715Z,25.87
